createdAt,value
2022-10-19T00:02:22.659Z,100.00
2022-10-19T00:04:49.296Z,100.00
2022-10-19T00:07:15.903Z,100.00
2022-10-19T00:09:45.456Z,100.00
2022-10-19T00:12:12.967Z,100.00
2022-10-19T00:14:39.590Z,100.00
2022-10-19T00:17:06.160Z,100.00
2022-10-19T00:19:32.846Z,100.00
2022-10-19T00:21:59.439Z,100.00
2022-10-19T00:24:26.049Z,100.00
2022-10-19T00:26:52.656Z,100.00
2022-10-19T00:29:19.278Z,100.00
2022-10-19T00:31:46.068Z,100.00
2022-10-19T00:34:12.717Z,100.00
2022-10-19T00:36:40.442Z,100.00
2022-10-19T00:39:10.890Z,100.00
2022-10-19T00:41:38.480Z,100.00
2022-10-19T00:44:12.633Z,100.00
2022-10-19T00:46:45.049Z,100.00
2022-10-19T00:49:24.987Z,100.00
2022-10-19T00:51:55.197Z,100.00
2022-10-19T00:54:23.018Z,100.00
2022-10-19T00:56:51.786Z,100.00
2022-10-19T00:59:22.090Z,100.00
2022-10-19T01:01:49.427Z,100.00
2022-10-19T01:04:16.395Z,100.00
2022-10-19T01:06:43.159Z,100.00
2022-10-19T01:09:09.817Z,100.00
2022-10-19T01:12:01.340Z,100.00
2022-10-19T01:14:44.628Z,100.00
2022-10-19T01:17:30.081Z,100.00
2022-10-19T01:20:24.272Z,100.00
2022-10-19T01:23:26.075Z,100.00
2022-10-19T01:25:55.668Z,100.00
2022-10-19T01:28:25.271Z,100.00
2022-10-19T01:30:57.866Z,100.00
2022-10-19T01:33:38.458Z,100.00
2022-10-19T01:36:36.203Z,100.00
2022-10-19T01:39:21.991Z,100.00
2022-10-19T01:42:12.898Z,100.00
2022-10-19T01:44:52.335Z,100.00
2022-10-19T01:47:25.897Z,100.00
2022-10-19T01:50:02.111Z,100.00
2022-10-19T01:52:29.754Z,100.00
2022-10-19T01:54:59.575Z,100.00
2022-10-19T01:57:32.751Z,100.00
2022-10-19T02:00:05.286Z,100.00
2022-10-19T02:02:43.250Z,100.00
2022-10-19T02:05:11.948Z,100.00
2022-10-19T02:07:41.549Z,100.00
2022-10-19T02:10:08.572Z,100.00
2022-10-19T02:12:36.935Z,100.00
2022-10-19T02:15:11.639Z,100.00
2022-10-19T02:17:44.042Z,100.00
2022-10-19T02:20:10.738Z,100.00
2022-10-19T02:22:37.453Z,100.00
2022-10-19T02:25:05.002Z,100.00
2022-10-19T02:27:31.587Z,100.00
2022-10-19T02:29:58.227Z,100.00
2022-10-19T02:32:26.362Z,100.00
2022-10-19T02:34:53.091Z,100.00
2022-10-19T02:37:22.062Z,100.00
2022-10-19T02:39:51.373Z,100.00
2022-10-19T02:42:24.350Z,100.00
2022-10-19T02:44:58.413Z,100.00
2022-10-19T02:47:30.858Z,100.00
2022-10-19T02:49:57.509Z,100.00
2022-10-19T02:52:24.079Z,100.00
2022-10-19T02:54:50.698Z,100.00
2022-10-19T02:57:18.621Z,100.00
2022-10-19T02:59:45.733Z,100.00
2022-10-19T03:02:13.599Z,100.00
2022-10-19T03:04:41.700Z,100.00
2022-10-19T03:07:17.508Z,100.00
2022-10-19T03:09:44.621Z,100.00
2022-10-19T03:12:12.421Z,100.00
2022-10-19T03:14:39.329Z,100.00
2022-10-19T03:17:06.485Z,100.00
2022-10-19T03:19:35.234Z,100.00
2022-10-19T03:22:01.902Z,100.00
2022-10-19T03:24:30.351Z,100.00
2022-10-19T03:26:57.339Z,100.00
2022-10-19T03:29:24.050Z,100.00
2022-10-19T03:31:50.720Z,100.00
2022-10-19T03:34:17.407Z,100.00
2022-10-19T03:36:44.021Z,100.00
2022-10-19T03:39:13.742Z,100.00
2022-10-19T03:41:40.644Z,100.00
2022-10-19T03:44:08.270Z,100.00
2022-10-19T03:46:35.708Z,100.00
2022-10-19T03:49:03.164Z,100.00
2022-10-19T03:51:31.175Z,100.00
2022-10-19T03:54:06.455Z,100.00
2022-10-19T03:56:34.731Z,100.00
2022-10-19T03:59:03.510Z,100.00
2022-10-19T04:01:40.952Z,100.00
2022-10-19T04:04:11.365Z,100.00
2022-10-19T04:06:40.794Z,100.00
2022-10-19T04:09:09.731Z,100.00
2022-10-19T04:11:36.384Z,100.00
2022-10-19T04:14:04.168Z,100.00
2022-10-19T04:16:31.985Z,100.00
2022-10-19T04:18:59.318Z,100.00
2022-10-19T04:21:31.001Z,100.00
2022-10-19T04:24:13.586Z,100.00
2022-10-19T04:26:42.835Z,100.00
2022-10-19T04:29:10.469Z,100.00
2022-10-19T04:31:37.458Z,100.00
2022-10-19T04:34:05.025Z,100.00
2022-10-19T04:36:32.063Z,100.00
2022-10-19T04:38:58.625Z,100.00
2022-10-19T04:41:25.705Z,100.00
2022-10-19T04:44:00.088Z,100.00
2022-10-19T04:46:27.902Z,100.00
2022-10-19T04:48:55.180Z,100.00
2022-10-19T04:51:22.674Z,100.00
2022-10-19T04:53:50.476Z,100.00
2022-10-19T04:56:21.167Z,100.00
2022-10-19T04:58:48.557Z,100.00
2022-10-19T05:01:18.780Z,100.00
2022-10-19T05:03:47.144Z,100.00
2022-10-19T05:06:15.910Z,100.00
2022-10-19T05:08:42.689Z,100.00
2022-10-19T05:11:14.804Z,100.00
2022-10-19T05:13:42.446Z,100.00
2022-10-19T05:16:12.181Z,100.00
2022-10-19T05:18:39.442Z,100.00
2022-10-19T05:21:16.393Z,100.00
2022-10-19T05:23:43.450Z,100.00
2022-10-19T05:26:18.177Z,100.00
2022-10-19T05:28:56.827Z,100.00
2022-10-19T05:31:26.659Z,100.00
2022-10-19T05:33:53.726Z,100.00
2022-10-19T05:36:26.630Z,100.00
2022-10-19T05:38:55.379Z,100.00
2022-10-19T05:41:23.593Z,100.00
2022-10-19T05:44:01.629Z,100.00
2022-10-19T05:46:29.970Z,100.00
2022-10-19T05:48:58.034Z,100.00
2022-10-19T05:51:27.121Z,100.00
2022-10-19T05:53:55.509Z,100.00
2022-10-19T05:56:26.478Z,100.00
2022-10-19T05:58:54.937Z,100.00
2022-10-19T06:01:21.619Z,100.00
2022-10-19T06:03:52.120Z,100.00
2022-10-19T06:06:19.206Z,100.00
2022-10-19T06:08:46.155Z,100.00
2022-10-19T06:11:15.812Z,100.00
2022-10-19T06:13:43.495Z,100.00
2022-10-19T06:16:11.879Z,100.00
2022-10-19T06:18:38.928Z,100.00
2022-10-19T06:21:15.671Z,100.00
2022-10-19T06:26:14.533Z,100.00
2022-10-19T06:28:42.907Z,100.00
2022-10-19T06:31:11.150Z,100.00
2022-10-19T06:33:40.673Z,100.00
2022-10-19T06:36:12.493Z,100.00
2022-10-19T06:38:39.426Z,100.00
2022-10-19T06:41:06.719Z,100.00
2022-10-19T06:43:34.500Z,100.00
2022-10-19T06:46:12.974Z,100.00
2022-10-19T06:48:39.543Z,100.00
2022-10-19T06:51:10.233Z,100.00
2022-10-19T06:53:36.889Z,100.00
2022-10-19T06:56:05.769Z,100.00
2022-10-19T06:58:36.545Z,100.00
2022-10-19T07:01:04.707Z,100.00
2022-10-19T07:03:31.391Z,100.00
2022-10-19T07:06:00.249Z,100.00
2022-10-19T07:08:29.227Z,100.00
2022-10-19T07:10:58.269Z,100.00
2022-10-19T07:13:26.016Z,100.00
2022-10-19T07:16:00.806Z,100.00
2022-10-19T07:18:27.631Z,100.00
2022-10-19T07:20:58.453Z,100.00
2022-10-19T07:23:27.376Z,100.00
2022-10-19T07:25:55.500Z,100.00
2022-10-19T07:28:22.365Z,100.00
2022-10-19T07:30:48.983Z,100.00
2022-10-19T07:35:42.471Z,100.00
2022-10-19T07:38:09.220Z,100.00
2022-10-19T07:40:36.111Z,100.00
2022-10-19T07:43:03.140Z,100.00
2022-10-19T07:45:30.105Z,100.00
2022-10-19T07:47:56.734Z,100.00
2022-10-19T07:50:24.705Z,100.00
2022-10-19T07:52:52.394Z,100.00
2022-10-19T07:55:19.619Z,100.00
2022-10-19T07:57:49.919Z,100.00
2022-10-19T08:00:17.050Z,100.00
2022-10-19T08:02:57.748Z,100.00
2022-10-19T08:05:26.688Z,100.00
2022-10-19T08:07:53.303Z,100.00
2022-10-19T08:10:19.929Z,100.00
2022-10-19T08:12:46.473Z,100.00
2022-10-19T08:15:13.031Z,100.00
2022-10-19T08:17:39.990Z,100.00
2022-10-19T08:20:07.697Z,99.85
2022-10-19T08:22:34.645Z,100.00
2022-10-19T08:25:01.734Z,100.00
2022-10-19T08:27:29.237Z,100.00
2022-10-19T08:29:55.974Z,99.71
2022-10-19T08:32:22.614Z,100.00
2022-10-19T08:34:49.241Z,100.00
2022-10-19T08:37:25.754Z,100.00
2022-10-19T08:39:59.481Z,100.00
2022-10-19T08:42:42.674Z,100.00
2022-10-19T08:45:22.490Z,100.00
2022-10-19T08:47:56.853Z,100.00
2022-10-19T08:50:34.894Z,100.00
2022-10-19T08:53:05.460Z,100.00
2022-10-19T08:55:51.570Z,100.00
2022-10-19T08:58:21.221Z,100.00
2022-10-19T09:01:02.814Z,100.00
2022-10-19T09:03:54.821Z,99.78
2022-10-19T09:06:33.689Z,99.41
2022-10-19T09:09:00.619Z,98.98
2022-10-19T09:11:38.197Z,98.61
2022-10-19T09:14:27.284Z,97.53
2022-10-19T09:17:09.374Z,96.64
2022-10-19T09:19:36.063Z,95.96
2022-10-19T09:22:15.978Z,96.13
2022-10-19T09:24:55.998Z,95.75
2022-10-19T09:27:33.089Z,95.90
2022-10-19T09:30:06.173Z,95.62
2022-10-19T09:32:36.919Z,96.32
2022-10-19T09:35:08.183Z,95.97
2022-10-19T09:37:43.958Z,94.56
2022-10-19T09:40:17.111Z,95.09
2022-10-19T09:42:43.682Z,93.15
2022-10-19T09:45:22.418Z,92.81
2022-10-19T09:47:49.084Z,92.90
2022-10-19T09:50:27.443Z,91.06
2022-10-19T09:52:59.129Z,88.72
2022-10-19T09:55:35.061Z,89.10
2022-10-19T09:58:05.502Z,91.22
2022-10-19T10:00:38.815Z,89.58
2022-10-19T10:03:07.483Z,89.33
2022-10-19T10:05:40.062Z,88.18
2022-10-19T10:08:16.846Z,88.02
2022-10-19T10:10:52.913Z,86.73
2022-10-19T10:13:23.667Z,85.87
2022-10-19T10:15:56.687Z,84.90
2022-10-19T10:18:25.299Z,85.28
2022-10-19T10:21:13.370Z,83.57
2022-10-19T10:23:40.491Z,84.12
2022-10-19T10:26:17.975Z,83.76
2022-10-19T10:28:50.368Z,82.57
2022-10-19T10:31:23.628Z,85.54
2022-10-19T10:34:30.263Z,84.92
2022-10-19T10:37:07.414Z,86.31
2022-10-19T10:39:42.415Z,84.24
2022-10-19T10:42:18.960Z,83.32
2022-10-19T10:44:50.625Z,84.10
2022-10-19T10:47:20.541Z,85.76
2022-10-19T10:49:57.620Z,86.80
2022-10-19T10:52:27.695Z,86.69
2022-10-19T10:55:00.440Z,86.24
2022-10-19T10:57:38.904Z,84.22
2022-10-19T11:00:08.060Z,84.10
2022-10-19T11:02:58.425Z,84.71
2022-10-19T11:05:37.536Z,83.64
2022-10-19T11:08:18.558Z,83.89
2022-10-19T11:11:03.921Z,83.28
2022-10-19T11:13:39.007Z,82.51
2022-10-19T11:16:18.643Z,84.76
2022-10-19T11:19:19.463Z,83.86
2022-10-19T11:21:48.821Z,83.04
2022-10-19T11:24:26.845Z,84.01
2022-10-19T11:27:22.088Z,85.21
2022-10-19T11:30:07.338Z,82.35
2022-10-19T11:32:58.735Z,82.31
2022-10-19T11:35:34.664Z,82.85
2022-10-19T11:38:27.382Z,85.58
2022-10-19T11:41:21.133Z,85.58
2022-10-19T11:44:15.283Z,86.29
2022-10-19T11:46:41.803Z,85.99
2022-10-19T11:49:29.405Z,85.72
2022-10-19T11:52:04.334Z,84.81
2022-10-19T11:54:39.084Z,83.45
2022-10-19T11:57:13.414Z,82.26
2022-10-19T12:00:13.605Z,83.03
2022-10-19T12:03:03.683Z,82.39
2022-10-19T12:05:39.009Z,83.23
2022-10-19T12:08:11.376Z,81.76
2022-10-19T12:11:10.184Z,80.84
2022-10-19T12:13:44.435Z,80.70
2022-10-19T12:16:13.957Z,78.93
2022-10-19T12:18:43.725Z,79.99
2022-10-19T12:21:17.614Z,82.11
2022-10-19T12:23:46.772Z,80.68
2022-10-19T12:29:00.705Z,79.99
2022-10-19T12:31:28.690Z,82.30
2022-10-19T12:34:16.647Z,81.39
2022-10-19T12:37:01.814Z,80.81
2022-10-19T12:39:50.531Z,79.84
2022-10-19T12:42:43.047Z,79.40
2022-10-19T12:45:30.271Z,80.32
2022-10-19T12:48:09.023Z,81.33
2022-10-19T12:50:51.506Z,81.95
2022-10-19T12:53:40.237Z,81.84
2022-10-19T12:56:09.795Z,82.36
2022-10-19T12:58:47.473Z,82.30
2022-10-19T13:01:17.379Z,83.27
2022-10-19T13:03:46.937Z,82.56
2022-10-19T13:06:17.927Z,82.69
2022-10-19T13:08:53.448Z,82.08
2022-10-19T13:11:21.068Z,81.35
2022-10-19T13:13:56.046Z,83.22
2022-10-19T13:16:28.537Z,82.38
2022-10-19T13:19:13.248Z,82.57
2022-10-19T13:21:45.099Z,83.17
2022-10-19T13:24:23.882Z,83.05
2022-10-19T13:27:02.319Z,82.09
2022-10-19T13:29:38.625Z,81.58
2022-10-19T13:32:36.855Z,81.32
2022-10-19T13:35:25.474Z,81.98
2022-10-19T13:38:11.475Z,83.09
2022-10-19T13:40:56.317Z,82.17
2022-10-19T13:43:58.034Z,81.36
2022-10-19T13:46:30.357Z,80.60
2022-10-19T13:49:21.541Z,82.09
2022-10-19T13:52:07.452Z,81.51
2022-10-19T13:54:50.257Z,81.14
2022-10-19T13:57:23.125Z,81.39
2022-10-19T14:00:21.914Z,81.61
2022-10-19T14:03:22.554Z,80.78
2022-10-19T14:06:24.645Z,80.66
2022-10-19T14:09:15.155Z,81.90
2022-10-19T14:11:47.380Z,81.49
2022-10-19T14:14:18.898Z,80.95
2022-10-19T14:16:57.074Z,82.06
2022-10-19T14:19:42.462Z,83.73
2022-10-19T14:22:38.152Z,83.85
2022-10-19T14:25:22.460Z,84.38
2022-10-19T14:27:56.766Z,83.59
2022-10-19T14:30:31.346Z,85.38
2022-10-19T14:33:02.237Z,85.09
2022-10-19T14:35:33.186Z,85.71
2022-10-19T14:38:01.058Z,86.33
2022-10-19T14:40:30.792Z,86.11
2022-10-19T14:42:59.951Z,86.99
2022-10-19T14:45:35.645Z,86.75
2022-10-19T14:48:05.204Z,86.53
2022-10-19T14:50:43.033Z,87.19
2022-10-19T14:53:48.302Z,88.03
2022-10-19T14:56:23.726Z,87.80
2022-10-19T14:59:15.042Z,86.91
2022-10-19T15:01:52.694Z,87.28
2022-10-19T15:04:23.162Z,88.43
2022-10-19T15:06:50.143Z,87.88
2022-10-19T15:09:36.782Z,87.83
2022-10-19T15:12:13.272Z,88.53
2022-10-19T15:14:40.399Z,88.99
2022-10-19T15:17:23.835Z,88.16
2022-10-19T15:19:50.516Z,90.20
2022-10-19T15:22:39.198Z,88.75
2022-10-19T15:25:08.661Z,89.99
2022-10-19T15:27:36.311Z,90.77
2022-10-19T15:30:02.891Z,91.40
2022-10-19T15:32:38.198Z,91.13
2022-10-19T15:35:28.546Z,91.08
2022-10-19T15:38:10.126Z,91.71
2022-10-19T15:40:39.727Z,93.43
2022-10-19T15:43:35.243Z,93.18
2022-10-19T15:46:05.213Z,93.97
2022-10-19T15:48:41.365Z,93.33
2022-10-19T15:51:32.774Z,94.23
2022-10-19T15:54:01.950Z,95.76
2022-10-19T15:56:31.255Z,95.83
2022-10-19T15:59:00.521Z,95.42
2022-10-19T16:01:30.746Z,96.28
2022-10-19T16:03:58.003Z,96.11
2022-10-19T16:06:28.247Z,96.22
2022-10-19T16:08:55.224Z,96.52
2022-10-19T16:11:25.910Z,97.12
2022-10-19T16:13:53.071Z,95.86
2022-10-19T16:16:26.108Z,96.75
2022-10-19T16:18:53.431Z,96.70
2022-10-19T16:21:22.253Z,97.85
2022-10-19T16:23:49.101Z,97.27
2022-10-19T16:26:16.866Z,97.11
2022-10-19T16:28:44.447Z,97.19
2022-10-19T16:31:11.581Z,96.21
2022-10-19T16:33:38.209Z,96.55
2022-10-19T16:36:06.289Z,96.46
2022-10-19T16:38:33.274Z,97.65
2022-10-19T16:41:05.386Z,97.32
2022-10-19T16:43:32.544Z,98.85
2022-10-19T16:45:59.498Z,98.28
2022-10-19T16:48:26.427Z,97.30
2022-10-19T16:51:20.188Z,97.96
2022-10-19T16:53:50.725Z,97.57
2022-10-19T16:56:17.705Z,97.61
2022-10-19T16:58:44.319Z,97.37
2022-10-19T17:01:18.740Z,96.78
2022-10-19T17:03:47.077Z,96.46
2022-10-19T17:06:14.982Z,96.00
2022-10-19T17:09:23.302Z,96.24
2022-10-19T17:11:33.903Z,96.31
2022-10-19T17:14:04.342Z,97.53
2022-10-19T17:16:32.665Z,97.72
2022-10-19T17:19:00.557Z,98.16
2022-10-19T17:21:30.361Z,98.42
2022-10-19T17:23:59.449Z,98.52
2022-10-19T17:26:37.869Z,98.59
2022-10-19T17:29:06.025Z,98.40
2022-10-19T17:31:33.306Z,98.69
2022-10-19T17:34:00.825Z,99.00
2022-10-19T17:36:31.039Z,99.30
2022-10-19T17:39:01.327Z,99.13
2022-10-19T17:41:29.451Z,99.50
2022-10-19T17:43:56.807Z,98.80
2022-10-19T17:46:30.677Z,99.00
2022-10-19T17:48:58.377Z,99.19
2022-10-19T17:51:28.443Z,99.25
2022-10-19T17:53:58.190Z,98.96
2022-10-19T17:56:25.141Z,98.92
2022-10-19T17:58:52.041Z,99.28
2022-10-19T18:01:20.440Z,98.79
2022-10-19T18:03:47.593Z,98.75
2022-10-19T18:06:20.528Z,97.71
2022-10-19T18:08:51.094Z,97.93
2022-10-19T18:11:20.446Z,97.53
2022-10-19T18:13:47.504Z,97.91
2022-10-19T18:16:31.819Z,98.89
2022-10-19T18:19:00.436Z,98.36
2022-10-19T18:21:32.885Z,98.68
2022-10-19T18:24:01.644Z,98.15
2022-10-19T18:26:30.949Z,98.28
2022-10-19T18:28:58.462Z,98.13
2022-10-19T18:31:30.689Z,98.70
2022-10-19T18:34:02.293Z,99.37
2022-10-19T18:36:29.533Z,99.05
2022-10-19T18:38:58.901Z,98.92
2022-10-19T18:41:26.067Z,98.86
2022-10-19T18:43:55.207Z,99.07
2022-10-19T18:46:23.278Z,99.47
2022-10-19T18:48:50.270Z,99.59
2022-10-19T18:51:18.293Z,100.00
2022-10-19T18:53:45.935Z,99.96
2022-10-19T18:56:14.657Z,100.00
2022-10-19T18:58:41.617Z,100.00
2022-10-19T19:01:17.173Z,99.94
2022-10-19T19:03:46.080Z,100.00
2022-10-19T19:06:16.467Z,100.00
2022-10-19T19:11:23.524Z,100.00
2022-10-19T19:13:53.553Z,100.00
2022-10-19T19:16:21.326Z,100.00
2022-10-19T19:18:48.442Z,100.00
2022-10-19T19:21:23.146Z,100.00
2022-10-19T19:23:51.175Z,100.00
2022-10-19T19:26:19.449Z,100.00
2022-10-19T19:28:49.277Z,100.00
2022-10-19T19:31:18.595Z,100.00
2022-10-19T19:33:46.342Z,100.00
2022-10-19T19:36:15.761Z,100.00
2022-10-19T19:38:42.535Z,100.00
2022-10-19T19:41:12.811Z,100.00
2022-10-19T19:43:40.429Z,100.00
2022-10-19T19:46:12.465Z,100.00
2022-10-19T19:48:42.020Z,100.00
2022-10-19T19:51:11.277Z,100.00
2022-10-19T19:53:40.114Z,100.00
2022-10-19T19:56:08.860Z,100.00
2022-10-19T19:58:35.485Z,100.00
2022-10-19T20:01:13.707Z,100.00
2022-10-19T20:03:41.931Z,100.00
2022-10-19T20:06:09.757Z,100.00
2022-10-19T20:08:37.515Z,100.00
2022-10-19T20:11:06.605Z,100.00
2022-10-19T20:13:33.638Z,100.00
2022-10-19T20:16:06.269Z,100.00
2022-10-19T20:18:32.912Z,100.00
2022-10-19T20:21:03.319Z,100.00
2022-10-19T20:23:30.305Z,100.00
2022-10-19T20:25:57.288Z,100.00
2022-10-19T20:28:25.438Z,100.00
2022-10-19T20:31:09.356Z,100.00
2022-10-19T20:33:37.788Z,100.00
2022-10-19T20:36:06.470Z,100.00
2022-10-19T20:38:34.182Z,100.00
2022-10-19T20:41:07.045Z,100.00
2022-10-19T20:43:36.066Z,100.00
2022-10-19T20:46:13.081Z,100.00
2022-10-19T20:48:40.404Z,100.00
2022-10-19T20:51:15.945Z,100.00
2022-10-19T20:53:47.286Z,100.00
2022-10-19T20:56:17.423Z,100.00
2022-10-19T20:58:45.306Z,100.00
2022-10-19T21:01:18.028Z,100.00
2022-10-19T21:03:54.983Z,100.00
2022-10-19T21:06:23.910Z,100.00
2022-10-19T21:08:51.361Z,100.00
2022-10-19T21:11:29.915Z,100.00
2022-10-19T21:14:02.171Z,100.00
2022-10-19T21:16:35.380Z,100.00
2022-10-19T21:19:04.053Z,100.00
2022-10-19T21:21:35.286Z,100.00
2022-10-19T21:24:07.469Z,100.00
2022-10-19T21:26:36.186Z,100.00
2022-10-19T21:29:03.810Z,100.00
2022-10-19T21:31:30.714Z,100.00
2022-10-19T21:33:57.542Z,100.00
2022-10-19T21:36:27.167Z,100.00
2022-10-19T21:38:53.829Z,100.00
2022-10-19T21:41:25.386Z,100.00
2022-10-19T21:43:54.174Z,100.00
2022-10-19T21:46:22.453Z,100.00
2022-10-19T21:48:49.327Z,100.00
2022-10-19T21:51:35.369Z,100.00
2022-10-19T21:54:03.593Z,100.00
2022-10-19T21:56:30.729Z,100.00
2022-10-19T21:58:57.896Z,100.00
2022-10-19T22:01:27.585Z,100.00
2022-10-19T22:03:58.604Z,100.00
2022-10-19T22:06:27.543Z,100.00
2022-10-19T22:08:54.338Z,100.00
2022-10-19T22:11:21.746Z,100.00
2022-10-19T22:13:48.889Z,100.00
2022-10-19T22:16:20.942Z,100.00
2022-10-19T22:18:48.612Z,100.00
2022-10-19T22:21:20.390Z,100.00
2022-10-19T22:23:52.449Z,100.00
2022-10-19T22:26:25.494Z,100.00
2022-10-19T22:28:52.497Z,100.00
2022-10-19T22:31:19.114Z,100.00
2022-10-19T22:33:45.717Z,100.00
2022-10-19T22:36:13.435Z,100.00
2022-10-19T22:38:40.759Z,100.00
2022-10-19T22:41:07.420Z,100.00
2022-10-19T22:43:34.515Z,100.00
2022-10-19T22:46:01.282Z,100.00
2022-10-19T22:48:28.022Z,100.00
2022-10-19T22:50:55.611Z,100.00
2022-10-19T22:53:23.904Z,100.00
2022-10-19T22:55:51.361Z,100.00
2022-10-19T22:58:18.737Z,100.00
2022-10-19T23:00:45.634Z,100.00
2022-10-19T23:03:12.246Z,100.00
2022-10-19T23:05:38.887Z,100.00
2022-10-19T23:08:05.670Z,100.00
2022-10-19T23:10:32.755Z,100.00
2022-10-19T23:12:59.357Z,100.00
2022-10-19T23:15:26.210Z,100.00
2022-10-19T23:17:52.761Z,100.00
2022-10-19T23:20:19.326Z,100.00
2022-10-19T23:22:45.970Z,100.00
2022-10-19T23:25:12.546Z,100.00
2022-10-19T23:27:39.360Z,100.00
2022-10-19T23:30:06.621Z,100.00
2022-10-19T23:32:33.251Z,100.00
2022-10-19T23:34:59.855Z,100.00
2022-10-19T23:37:26.471Z,100.00
2022-10-19T23:39:53.053Z,100.00
2022-10-19T23:42:19.645Z,100.00
2022-10-19T23:44:46.191Z,100.00
2022-10-19T23:47:12.780Z,100.00
2022-10-19T23:49:39.364Z,100.00
2022-10-19T23:52:06.173Z,100.00
2022-10-19T23:54:32.752Z,100.00
2022-10-19T23:56:59.489Z,100.00
2022-10-19T23:59:26.066Z,100.00
